Terrebonne, Canada
Current Conditions -  °F | °C
As of 7:26 PM on Saturday 20 Dec 2014 (Local Time) from CYHU Reporting Station
Light Snow Light Snow  
Wind Chill: -2°   Ceiling: Unl
Heat Index:   Visibility: 2.5mi
Dew Point:   Wind: 5mph
Humidity: 85%   Direction: 50°NE
Pressure: 30.37"   Gusts: NA
Location:  45.68°N, 73.63°W
Report Text: CYHU 210026Z AUTO 05004KT 2 1/2SM -SN FEW005 SCT220 M14/M16 A3037 RMK SLP286
Loading
Personal Weather Stations






























Interactive Weather Map New forecast layout! Learn more

10-Day Weather Forecast

Advertisements
Track Severe Weather on mobile